Time;durP1;ratioP1;P1;durP2;ratioP2;P2;SDS_P1;SDS_P2;PMS_P1;PMS_P2;Temp;Humidity;BMP_temperature;BMP_pressure;BME280_temperature;BME280_humidity;BME280_pressure;Samples;Min_cycle;Max_cycle;Signal;HPM_P1;HPM_P2
2022/06/22 00:01:59;;;;;;;6.30;5.80;;;20.80;99.90;;;;;;4975631;28;20533;-70
2022/06/22 00:04:30;;;;;;;6.00;5.47;;;20.80;99.90;;;;;;4975249;28;20463;-68
2022/06/22 00:07:00;;;;;;;7.17;6.27;;;20.80;99.90;;;;;;4975346;28;20518;-71
2022/06/22 00:09:29;;;;;;;6.70;6.20;;;20.80;99.90;;;;;;4974380;28;20465;-68
2022/06/22 00:11:58;;;;;;;7.10;6.43;;;20.70;99.90;;;;;;4975397;28;20470;-68
2022/06/22 00:14:28;;;;;;;6.50;5.90;;;20.70;99.90;;;;;;4975260;28;20470;-69
2022/06/22 00:16:56;;;;;;;7.73;6.73;;;20.70;99.90;;;;;;4975194;28;20482;-71
2022/06/22 00:19:30;;;;;;;6.50;6.00;;;20.70;99.90;;;;;;4974451;28;20462;-71
2022/06/22 00:21:58;;;;;;;6.77;6.27;;;20.70;99.90;;;;;;4975259;28;20467;-70
2022/06/22 00:24:39;;;;;;;6.17;5.60;;;20.60;99.90;;;;;;4975156;28;20486;-70
2022/06/22 00:27:19;;;;;;;6.90;6.30;;;20.50;99.90;;;;;;4975117;28;20494;-70
2022/06/22 00:29:59;;;;;;;6.87;6.27;;;20.50;99.90;;;;;;4974191;28;20467;-69
2022/06/22 00:32:29;;;;;;;6.63;5.67;;;20.40;99.90;;;;;;4975192;28;20467;-69
2022/06/22 00:34:57;;;;;;;7.73;6.93;;;20.40;99.90;;;;;;4974675;28;20466;-69
2022/06/22 00:37:30;;;;;;;6.40;5.80;;;20.30;99.90;;;;;;4974818;28;20489;-70
2022/06/22 00:40:01;;;;;;;6.83;6.27;;;20.20;99.90;;;;;;4974279;28;20840;-70
2022/06/22 00:42:38;;;;;;;7.43;6.60;;;20.20;99.90;;;;;;4974718;28;20993;-69
2022/06/22 00:45:09;;;;;;;7.37;6.73;;;20.20;99.90;;;;;;4974886;28;20462;-69
2022/06/22 00:47:38;;;;;;;6.93;6.23;;;20.10;99.90;;;;;;4974304;28;20877;-70
2022/06/22 00:50:14;;;;;;;6.37;5.87;;;20.10;99.90;;;;;;4974239;28;20847;-69
2022/06/22 00:52:45;;;;;;;6.87;6.33;;;20.00;99.90;;;;;;4974413;28;20469;-69
2022/06/22 00:55:26;;;;;;;6.03;5.50;;;20.00;99.90;;;;;;4974460;28;20565;-70
2022/06/22 00:58:00;;;;;;;9.17;6.27;;;20.00;99.90;;;;;;4974180;28;20478;-70
2022/06/22 01:00:31;;;;;;;6.50;6.00;;;20.00;99.90;;;;;;4973921;28;20467;-70
2022/06/22 01:03:05;;;;;;;8.10;6.97;;;20.00;99.90;;;;;;4973968;28;20455;-69
2022/06/22 01:05:38;;;;;;;6.57;5.97;;;20.00;99.90;;;;;;4974412;28;20470;-70
2022/06/22 01:08:12;;;;;;;6.30;5.80;;;20.00;99.90;;;;;;4973693;28;20502;-70
2022/06/22 01:10:44;;;;;;;6.63;6.07;;;20.00;99.90;;;;;;4973274;28;20467;-69
2022/06/22 01:13:18;;;;;;;6.60;6.03;;;20.00;99.90;;;;;;4974083;28;20466;-69
2022/06/22 01:15:49;;;;;;;8.97;6.27;;;20.00;99.90;;;;;;4973954;28;20479;-69
2022/06/22 01:18:24;;;;;;;6.60;6.00;;;20.00;99.90;;;;;;4973805;28;20490;-70
2022/06/22 01:20:59;;;;;;;6.47;5.97;;;19.90;99.90;;;;;;4973683;28;20467;-70
2022/06/22 01:24:06;;;;;;;6.90;6.30;;;19.90;99.90;;;;;;4973710;28;20469;-69
2022/06/22 01:27:05;;;;;;;7.27;6.67;;;19.90;99.90;;;;;;4973688;28;20482;-70
2022/06/22 01:29:33;;;;;;;6.53;6.03;;;19.90;99.90;;;;;;4972925;28;20525;-70
2022/06/22 01:32:03;;;;;;;7.07;6.53;;;19.90;99.90;;;;;;4973914;28;20466;-70
2022/06/22 01:34:34;;;;;;;6.77;6.07;;;19.90;99.90;;;;;;4973605;28;20459;-68
2022/06/22 01:37:02;;;;;;;6.40;5.90;;;19.90;99.90;;;;;;4973858;28;20474;-69
2022/06/22 01:39:29;;;;;;;7.47;6.73;;;19.90;99.90;;;;;;4972902;28;20469;-69
2022/06/22 01:42:00;;;;;;;7.10;6.40;;;19.90;99.90;;;;;;4973957;28;20844;-69
2022/06/22 01:44:32;;;;;;;7.87;7.07;;;19.90;99.90;;;;;;4973624;28;20493;-68
2022/06/22 01:47:26;;;;;;;6.90;6.30;;;19.90;99.90;;;;;;4973359;28;20903;-69
2022/06/22 01:50:00;;;;;;;7.33;6.63;;;19.90;99.90;;;;;;4973055;28;20474;-69
2022/06/22 01:52:52;;;;;;;6.57;5.90;;;19.90;99.90;;;;;;4973282;28;20551;-69
2022/06/22 01:55:31;;;;;;;6.97;6.37;;;19.90;99.90;;;;;;4973746;28;20470;-70
2022/06/22 01:58:08;;;;;;;7.47;6.63;;;19.90;99.90;;;;;;4973432;28;20479;-69
2022/06/22 02:00:35;;;;;;;7.90;7.13;;;19.90;99.90;;;;;;4972781;28;20869;-67
2022/06/22 02:03:14;;;;;;;7.40;6.70;;;19.90;99.90;;;;;;4973415;28;20470;-69
2022/06/22 02:05:44;;;;;;;8.13;6.63;;;20.00;99.90;;;;;;4972966;28;20848;-69
2022/06/22 02:08:15;;;;;;;6.60;6.10;;;20.10;99.90;;;;;;4973146;28;20881;-69
2022/06/22 02:10:46;;;;;;;6.90;6.30;;;20.10;99.90;;;;;;4972860;28;20513;-69
2022/06/22 02:13:29;;;;;;;7.60;6.90;;;20.10;99.90;;;;;;4973066;28;20823;-70
2022/06/22 02:16:04;;;;;;;7.00;6.40;;;20.20;99.90;;;;;;4971687;28;20471;-69
2022/06/22 02:18:37;;;;;;;7.97;7.27;;;20.20;99.90;;;;;;4972767;28;20495;-69
2022/06/22 02:21:17;;;;;;;7.40;6.70;;;20.20;99.90;;;;;;5047437;23;20465;-72
2022/06/22 02:23:47;;;;;;;7.90;7.20;;;20.20;99.90;;;;;;4996148;28;20458;-70
2022/06/22 02:26:19;;;;;;;6.80;6.30;;;20.20;99.90;;;;;;4990977;28;20458;-70
2022/06/22 02:28:47;;;;;;;7.53;6.83;;;20.20;99.90;;;;;;4992129;28;20465;-70
2022/06/22 02:31:17;;;;;;;7.20;6.50;;;20.10;99.90;;;;;;4991430;28;20477;-70
2022/06/22 02:33:53;;;;;;;8.60;7.30;;;20.10;99.90;;;;;;4992208;28;20466;-70
2022/06/22 02:36:20;;;;;;;7.30;6.60;;;20.00;99.90;;;;;;4991950;28;20474;-70
2022/06/22 02:38:50;;;;;;;8.20;6.43;;;20.00;99.90;;;;;;4992043;28;20969;-69
2022/06/22 02:46:48;;;;;;;8.33;7.60;;;19.90;99.90;;;;;;4991702;28;20485;-70
2022/06/22 02:49:25;;;;;;;8.30;7.50;;;19.90;99.90;;;;;;4991192;28;20551;-70
2022/06/22 02:51:52;;;;;;;7.97;7.30;;;19.90;99.90;;;;;;4991779;28;20466;-70
2022/06/22 02:54:30;;;;;;;9.10;7.80;;;19.90;99.90;;;;;;4991915;28;20466;-70
2022/06/22 02:57:10;;;;;;;8.13;7.43;;;20.00;99.90;;;;;;4991588;28;20482;-70
2022/06/22 02:59:38;;;;;;;8.00;7.30;;;20.00;99.90;;;;;;4991244;28;20457;-71
2022/06/22 03:02:07;;;;;;;7.63;7.03;;;20.10;99.90;;;;;;4991682;28;20458;-70
2022/06/22 03:04:35;;;;;;;7.83;7.13;;;20.10;99.90;;;;;;4991736;28;20472;-70
2022/06/22 03:07:02;;;;;;;7.93;7.23;;;20.10;99.90;;;;;;4991373;28;21015;-70
2022/06/22 03:09:30;;;;;;;8.60;7.70;;;20.10;99.90;;;;;;4990904;28;21016;-70
2022/06/22 03:12:00;;;;;;;8.50;7.20;;;20.10;99.90;;;;;;4991663;28;20466;-70
2022/06/22 03:14:29;;;;;;;9.13;7.23;;;20.10;99.90;;;;;;4991953;28;20469;-70
2022/06/22 03:16:59;;;;;;;10.40;7.17;;;20.10;99.90;;;;;;4991306;28;20995;-70
2022/06/22 03:19:33;;;;;;;8.73;7.93;;;20.10;99.90;;;;;;4990932;28;21133;-70
2022/06/22 03:22:01;;;;;;;7.43;6.73;;;20.10;99.90;;;;;;4990772;28;20969;-70
2022/06/22 03:24:37;;;;;;;8.90;7.27;;;20.10;99.90;;;;;;4991068;28;20488;-70
2022/06/22 03:27:11;;;;;;;10.80;9.57;;;20.00;99.90;;;;;;4991495;28;20916;-70
2022/06/22 03:29:42;;;;;;;8.03;6.93;;;19.90;99.90;;;;;;4990563;28;20834;-68
2022/06/22 03:32:15;;;;;;;7.37;6.77;;;19.90;99.90;;;;;;4990848;28;20476;-68
2022/06/22 03:34:46;;;;;;;10.23;7.70;;;19.80;99.90;;;;;;4991132;28;21012;-68
2022/06/22 03:37:20;;;;;;;9.53;8.50;;;19.80;99.90;;;;;;4990902;28;20872;-69
2022/06/22 03:39:52;;;;;;;8.20;7.50;;;19.80;99.90;;;;;;5007104;28;20462;-69
2022/06/22 03:42:23;;;;;;;8.13;7.40;;;19.70;99.90;;;;;;5010516;28;21044;-68
2022/06/22 03:44:55;;;;;;;11.67;7.97;;;19.70;99.90;;;;;;5010598;28;20461;-69
2022/06/22 03:47:25;;;;;;;8.30;7.47;;;19.70;99.90;;;;;;5009992;28;21030;-69
2022/06/22 03:49:58;;;;;;;9.40;8.33;;;19.60;99.90;;;;;;5007640;28;20461;-68
2022/06/22 03:52:31;;;;;;;8.67;7.20;;;19.60;99.90;;;;;;5010379;28;20481;-68
2022/06/22 03:55:05;;;;;;;8.60;7.83;;;19.50;99.90;;;;;;5008007;28;20454;-69
2022/06/22 03:57:35;;;;;;;7.80;7.10;;;19.50;99.90;;;;;;5010102;28;20572;-68
2022/06/22 04:00:04;;;;;;;8.10;7.37;;;19.50;99.90;;;;;;5009022;28;20480;-70
2022/06/22 04:02:31;;;;;;;9.07;8.27;;;19.50;99.90;;;;;;5009706;28;20461;-69
2022/06/22 04:04:58;;;;;;;8.30;7.57;;;19.50;99.90;;;;;;5009161;28;20464;-69
2022/06/22 04:07:32;;;;;;;8.63;7.93;;;19.50;99.90;;;;;;5009201;28;20996;-69
2022/06/22 04:09:59;;;;;;;8.93;8.00;;;19.50;99.90;;;;;;5008529;28;20473;-69
2022/06/22 04:12:29;;;;;;;8.87;8.10;;;19.50;99.90;;;;;;5009369;28;20497;-69
2022/06/22 04:15:03;;;;;;;8.40;7.63;;;19.60;99.90;;;;;;5008987;28;21011;-69
2022/06/22 04:17:35;;;;;;;8.40;7.60;;;19.60;99.90;;;;;;5009077;28;20477;-69
2022/06/22 04:20:07;;;;;;;8.93;8.23;;;19.70;99.90;;;;;;5008521;28;20463;-69
2022/06/22 04:22:40;;;;;;;9.63;8.63;;;19.70;99.90;;;;;;5006925;28;20961;-69
2022/06/22 04:25:14;;;;;;;9.60;8.70;;;19.70;99.90;;;;;;5009114;28;20463;-68
2022/06/22 04:27:44;;;;;;;7.87;7.07;;;19.80;99.90;;;;;;5009416;28;20489;-68
2022/06/22 04:30:16;;;;;;;9.00;8.20;;;19.80;99.90;;;;;;5009665;28;20873;-69
2022/06/22 04:32:49;;;;;;;7.80;7.20;;;19.90;99.90;;;;;;5010189;28;20460;-68
2022/06/22 04:35:29;;;;;;;8.33;7.53;;;19.90;99.90;;;;;;5010520;28;20473;-68
2022/06/22 04:38:06;;;;;;;7.30;6.70;;;19.90;99.90;;;;;;5010518;28;20851;-68
2022/06/22 04:40:45;;;;;;;8.60;7.23;;;19.90;99.90;;;;;;5009944;28;20461;-68
2022/06/22 04:43:12;;;;;;;8.50;7.70;;;19.90;99.90;;;;;;5009998;28;20468;-67
2022/06/22 04:45:42;;;;;;;9.30;8.17;;;19.90;99.90;;;;;;5012806;28;20457;-68
2022/06/22 04:48:15;;;;;;;9.00;8.20;;;19.90;99.90;;;;;;5013344;28;20493;-68
2022/06/22 04:50:45;;;;;;;9.07;8.27;;;19.90;99.90;;;;;;5013404;28;20480;-68
2022/06/22 04:53:18;;;;;;;7.57;6.97;;;20.00;99.90;;;;;;5013470;28;20465;-68
2022/06/22 04:55:46;;;;;;;8.67;7.87;;;20.00;99.90;;;;;;5013688;28;20465;-68
2022/06/22 04:58:29;;;;;;;9.00;8.17;;;20.00;99.90;;;;;;5013113;28;20496;-68
2022/06/22 05:00:56;;;;;;;8.90;7.90;;;20.00;99.90;;;;;;5013033;28;20833;-68
2022/06/22 05:03:22;;;;;;;8.20;7.50;;;20.10;99.90;;;;;;5013517;28;20469;-68
2022/06/22 05:05:49;;;;;;;8.37;7.67;;;20.10;99.90;;;;;;5013500;28;20461;-67
2022/06/22 05:08:24;;;;;;;8.33;7.63;;;20.20;99.90;;;;;;5013104;28;20541;-67
2022/06/22 05:10:54;;;;;;;9.53;8.27;;;20.30;99.90;;;;;;5013318;28;20471;-68
2022/06/22 05:13:25;;;;;;;8.00;7.20;;;20.40;99.90;;;;;;5013301;28;20465;-67
2022/06/22 05:15:56;;;;;;;7.97;7.27;;;20.50;99.90;;;;;;5013536;28;20465;-68
2022/06/22 05:18:25;;;;;;;7.70;7.00;;;20.50;99.90;;;;;;5013463;28;20860;-68
2022/06/22 05:20:57;;;;;;;9.33;8.43;;;20.70;99.90;;;;;;5012816;28;20487;-68
2022/06/22 05:23:28;;;;;;;8.30;7.53;;;20.80;99.90;;;;;;5013705;28;20462;-68
2022/06/22 05:25:58;;;;;;;9.10;7.97;;;20.80;99.90;;;;;;5013045;28;20461;-68
2022/06/22 05:28:33;;;;;;;8.53;7.83;;;20.90;99.90;;;;;;5013060;28;20500;-68
2022/06/22 05:31:04;;;;;;;8.60;7.73;;;21.10;99.90;;;;;;5012611;28;20460;-68
2022/06/22 05:33:31;;;;;;;8.20;7.50;;;21.20;99.90;;;;;;5013336;28;20472;-68
2022/06/22 05:36:05;;;;;;;7.40;6.80;;;21.30;99.90;;;;;;5013039;28;20511;-68
2022/06/22 05:38:36;;;;;;;8.80;8.00;;;21.40;99.90;;;;;;5012960;28;20478;-67
2022/06/22 05:41:06;;;;;;;8.00;7.30;;;21.40;99.90;;;;;;5012386;28;20469;-68
2022/06/22 05:43:33;;;;;;;9.20;8.40;;;21.50;99.90;;;;;;5013156;28;20465;-68
2022/06/22 05:46:02;;;;;;;11.47;7.67;;;21.50;99.90;;;;;;5012672;28;20854;-67
2022/06/22 05:48:31;;;;;;;7.50;6.90;;;21.50;99.90;;;;;;5012780;28;20500;-68
2022/06/22 05:51:02;;;;;;;8.53;7.30;;;21.50;99.90;;;;;;5012162;28;20465;-68
2022/06/22 05:53:33;;;;;;;7.90;7.30;;;21.60;99.90;;;;;;5012898;28;20834;-68
2022/06/22 05:56:11;;;;;;;7.77;6.97;;;21.50;99.90;;;;;;5012343;28;20465;-68
2022/06/22 05:58:45;;;;;;;8.20;7.50;;;21.60;99.90;;;;;;5012558;28;20481;-67
2022/06/22 06:01:20;;;;;;;8.03;7.40;;;21.60;99.90;;;;;;5012059;28;20838;-68
2022/06/22 06:03:56;;;;;;;7.87;7.17;;;21.60;99.90;;;;;;5012402;28;20902;-67
2022/06/22 06:06:27;;;;;;;8.87;8.00;;;21.50;99.90;;;;;;5012580;28;20460;-68
2022/06/22 06:08:57;;;;;;;8.40;7.60;;;21.40;99.90;;;;;;5012076;28;20481;-68
2022/06/22 06:11:33;;;;;;;8.60;7.90;;;21.40;99.90;;;;;;5011831;28;20469;-67
2022/06/22 06:14:02;;;;;;;7.77;6.97;;;21.30;99.90;;;;;;5012255;28;20461;-68
2022/06/22 06:16:38;;;;;;;10.63;8.40;;;21.30;99.90;;;;;;5011365;28;20941;-68
2022/06/22 06:19:07;;;;;;;10.47;7.70;;;21.30;99.90;;;;;;5012138;28;20461;-68
2022/06/22 06:21:37;;;;;;;8.27;7.47;;;21.20;99.90;;;;;;5011919;28;20469;-67
2022/06/22 06:24:14;;;;;;;11.27;7.37;;;21.20;99.90;;;;;;5012052;28;20461;-69
2022/06/22 06:29:36;;;;;;;8.10;7.50;;;21.10;99.90;;;;;;5004217;28;20488;-67
2022/06/22 06:32:21;;;;;;;8.03;7.30;;;21.10;99.90;;;;;;5011026;28;20472;-68
2022/06/22 06:34:54;;;;;;;8.20;7.40;;;21.00;99.90;;;;;;5009275;28;20461;-67
2022/06/22 06:37:28;;;;;;;7.80;7.10;;;21.00;99.90;;;;;;5011123;28;20485;-68
2022/06/22 06:39:57;;;;;;;9.37;8.20;;;21.00;99.90;;;;;;5010356;28;20841;-67
2022/06/22 06:42:32;;;;;;;9.50;8.20;;;21.00;99.90;;;;;;5010583;28;20884;-68
2022/06/22 06:45:02;;;;;;;10.17;7.77;;;20.90;99.90;;;;;;5008765;28;20964;-68
2022/06/22 06:47:34;;;;;;;12.80;8.57;;;20.80;99.90;;;;;;5010174;28;20494;-68
2022/06/22 06:50:06;;;;;;;7.87;7.07;;;20.80;99.90;;;;;;5009816;28;20526;-67
2022/06/22 06:52:42;;;;;;;8.23;7.47;;;20.70;99.90;;;;;;5010802;28;20465;-68
2022/06/22 06:55:20;;;;;;;8.53;7.70;;;20.50;99.90;;;;;;5010117;28;20978;-68
2022/06/22 06:57:57;;;;;;;9.47;7.80;;;20.50;99.90;;;;;;5009630;28;20892;-69
2022/06/22 07:00:25;;;;;;;9.73;8.03;;;20.50;99.90;;;;;;5010644;28;20476;-69
2022/06/22 07:02:52;;;;;;;8.70;7.90;;;20.40;99.90;;;;;;5010492;28;20843;-68
2022/06/22 07:05:21;;;;;;;9.70;8.70;;;20.40;99.90;;;;;;5010616;28;20905;-68
2022/06/22 07:07:53;;;;;;;8.80;8.10;;;20.40;99.90;;;;;;5006272;28;20477;-68
2022/06/22 07:10:30;;;;;;;10.07;8.10;;;20.40;99.90;;;;;;4990050;28;20466;-67
2022/06/22 07:13:00;;;;;;;9.40;8.20;;;20.50;99.90;;;;;;4991311;28;20473;-68
2022/06/22 07:15:33;;;;;;;9.17;8.37;;;20.40;99.90;;;;;;4990019;28;20466;-67
2022/06/22 07:18:03;;;;;;;9.73;8.50;;;20.40;99.90;;;;;;5009021;28;20477;-67
2022/06/22 07:20:36;;;;;;;9.73;8.90;;;20.40;99.90;;;;;;5007741;28;20473;-67
2022/06/22 07:23:06;;;;;;;9.67;8.77;;;20.40;99.90;;;;;;4990409;28;20466;-67
2022/06/22 07:25:39;;;;;;;9.40;8.50;;;20.40;99.90;;;;;;4990618;28;20501;-68
2022/06/22 07:28:14;;;;;;;10.90;8.93;;;20.40;99.90;;;;;;4990447;28;20486;-68
2022/06/22 07:30:46;;;;;;;10.23;9.13;;;20.40;99.90;;;;;;4990238;28;20527;-67
2022/06/22 07:33:18;;;;;;;9.50;8.70;;;20.50;99.90;;;;;;4990364;28;20458;-68
2022/06/22 07:35:50;;;;;;;10.70;9.67;;;20.50;99.90;;;;;;4990879;28;20512;-68
2022/06/22 07:38:27;;;;;;;11.70;8.53;;;20.60;99.90;;;;;;4989824;28;20490;-68
2022/06/22 07:43:41;;;;;;;9.57;8.77;;;20.80;99.90;;;;;;4990604;28;20449;-68
2022/06/22 07:46:11;;;;;;;9.97;9.10;;;21.00;99.90;;;;;;4989813;28;20462;-69
2022/06/22 07:48:43;;;;;;;10.60;9.50;;;21.10;99.90;;;;;;4990056;28;20503;-69
2022/06/22 07:51:16;;;;;;;10.20;9.00;;;21.10;99.90;;;;;;4989974;28;20469;-68
2022/06/22 07:53:49;;;;;;;10.03;9.07;;;21.20;99.90;;;;;;4990266;28;20469;-69
2022/06/22 07:56:22;;;;;;;9.57;8.67;;;21.20;99.90;;;;;;4990156;28;20466;-68
2022/06/22 07:58:55;;;;;;;9.47;8.60;;;21.20;99.90;;;;;;4989986;28;20496;-67
2022/06/22 08:01:29;;;;;;;8.53;7.70;;;21.30;99.90;;;;;;4989683;28;20462;-67
2022/06/22 08:04:02;;;;;;;8.93;8.23;;;21.30;99.90;;;;;;4996922;28;20460;-68
2022/06/22 08:06:34;;;;;;;8.77;8.07;;;21.40;99.90;;;;;;5009624;28;20964;-69
2022/06/22 08:09:07;;;;;;;9.17;8.27;;;21.50;99.90;;;;;;5009678;28;20588;-68
2022/06/22 08:11:37;;;;;;;9.03;8.23;;;21.50;99.90;;;;;;5009148;28;20465;-68
2022/06/22 08:14:10;;;;;;;8.97;8.07;;;21.50;99.90;;;;;;5009874;28;21027;-68
2022/06/22 08:16:42;;;;;;;10.77;8.83;;;21.50;99.90;;;;;;5010090;28;20477;-68
2022/06/22 08:19:10;;;;;;;9.63;8.57;;;21.50;99.90;;;;;;5010794;28;20493;-69
2022/06/22 08:21:49;;;;;;;10.23;8.60;;;21.50;99.90;;;;;;5035208;23;20485;-90
2022/06/22 08:24:18;;;;;;;10.03;9.13;;;21.50;99.90;;;;;;5007634;28;20454;-88
2022/06/22 08:26:47;;;;;;;9.70;8.03;;;21.50;99.90;;;;;;4997281;28;20466;-89
2022/06/22 08:29:18;;;;;;;9.03;8.20;;;21.50;99.90;;;;;;4995179;28;20493;-89
2022/06/22 08:31:52;;;;;;;9.10;8.27;;;21.50;99.90;;;;;;4995869;28;21029;-90
2022/06/22 08:34:27;;;;;;;10.40;9.20;;;21.40;99.90;;;;;;4998553;28;20472;-90
2022/06/22 08:36:57;;;;;;;9.60;8.70;;;21.40;99.90;;;;;;5001971;28;20457;-91
2022/06/22 08:39:37;;;;;;;10.30;9.20;;;21.40;99.90;;;;;;5001920;28;20457;-92
2022/06/22 08:42:19;;;;;;;9.77;8.53;;;21.40;99.90;;;;;;5020199;23;20524;-79
2022/06/22 08:45:17;;;;;;;10.43;9.30;;;21.40;99.90;;;;;;5007142;28;20450;-79
2022/06/22 08:48:32;;;;;;;9.70;8.90;;;21.40;99.90;;;;;;5006806;28;20482;-79
2022/06/22 08:51:17;;;;;;;9.97;9.03;;;21.40;99.90;;;;;;4969719;28;20469;-80
2022/06/22 08:54:03;;;;;;;9.87;8.63;;;21.40;99.90;;;;;;5007569;28;20461;-80
2022/06/22 08:56:39;;;;;;;9.47;8.70;;;21.40;99.90;;;;;;5006906;28;21306;-80
2022/06/22 08:59:41;;;;;;;9.33;8.33;;;21.20;99.90;;;;;;5006641;28;20457;-80
2022/06/22 09:02:23;;;;;;;11.83;8.80;;;21.10;99.90;;;;;;5007215;28;20497;-79
2022/06/22 09:05:10;;;;;;;10.30;9.40;;;21.00;99.90;;;;;;5007876;28;20472;-79
2022/06/22 09:07:53;;;;;;;9.83;8.40;;;21.10;99.90;;;;;;5007034;28;20473;-80
2022/06/22 09:10:38;;;;;;;9.30;8.40;;;21.10;99.90;;;;;;5006503;28;20517;-79
2022/06/22 09:13:35;;;;;;;11.87;10.67;;;21.10;99.90;;;;;;5007180;28;20954;-79
2022/06/22 09:16:14;;;;;;;10.30;9.30;;;21.20;99.90;;;;;;5007111;28;20454;-79
2022/06/22 09:19:11;;;;;;;10.07;9.10;;;21.20;99.90;;;;;;5007174;28;20465;-79
2022/06/22 09:21:53;;;;;;;10.23;9.13;;;21.20;99.90;;;;;;5006869;28;20778;-79
2022/06/22 09:24:23;;;;;;;10.93;9.80;;;21.20;99.90;;;;;;5006317;28;20462;-79
2022/06/22 09:27:02;;;;;;;11.50;10.30;;;21.20;99.90;;;;;;5006890;28;20475;-79
2022/06/22 09:29:42;;;;;;;11.00;10.10;;;21.20;99.90;;;;;;5022282;28;20481;-79
2022/06/22 09:32:37;;;;;;;12.70;10.23;;;21.20;99.90;;;;;;5025916;28;20465;-79
2022/06/22 09:35:41;;;;;;;9.90;8.90;;;21.20;99.90;;;;;;5026389;28;20453;-79
2022/06/22 09:38:39;;;;;;;11.20;10.20;;;21.30;99.90;;;;;;5025520;28;20919;-79
2022/06/22 09:41:15;;;;;;;9.87;8.97;;;21.40;99.90;;;;;;5002300;28;20445;-79
2022/06/22 09:44:12;;;;;;;10.53;9.53;;;21.40;99.90;;;;;;5025299;28;20496;-79
2022/06/22 09:46:56;;;;;;;10.77;9.73;;;21.40;99.90;;;;;;5026199;28;20486;-79
2022/06/22 09:49:47;;;;;;;9.40;8.40;;;21.50;99.90;;;;;;5015062;28;21042;-79
2022/06/22 09:52:47;;;;;;;11.27;9.53;;;21.50;99.90;;;;;;5008841;28;20461;-79
2022/06/22 09:59:04;;;;;;;9.90;9.00;;;21.50;99.90;;;;;;5011572;28;20620;-79
2022/06/22 10:01:39;;;;;;;8.67;7.87;;;21.50;99.90;;;;;;5009262;28;20831;-79
2022/06/22 10:05:00;;;;;;;9.27;8.47;;;21.50;99.90;;;;;;5005176;28;20557;-80
2022/06/22 10:07:44;;;;;;;8.53;7.90;;;21.50;99.90;;;;;;4999716;28;20901;-79
2022/06/22 10:10:24;;;;;;;13.20;9.10;;;21.60;99.90;;;;;;4994495;28;20489;-79
2022/06/22 10:13:26;;;;;;;10.83;8.60;;;21.60;99.90;;;;;;5003109;28;20461;-78
2022/06/22 10:16:31;;;;;;;11.17;10.20;;;21.50;99.90;;;;;;5006061;28;20489;-79
2022/06/22 10:19:13;;;;;;;9.70;8.70;;;21.50;99.90;;;;;;5006531;28;20481;-79
2022/06/22 10:21:52;;;;;;;10.00;9.17;;;21.30;99.90;;;;;;5023340;28;20494;-80
2022/06/22 10:24:43;;;;;;;11.30;10.30;;;21.10;99.90;;;;;;5020495;28;20466;-80
2022/06/22 10:27:58;;;;;;;10.40;9.40;;;21.00;99.90;;;;;;5010998;28;20477;-80
2022/06/22 10:30:33;;;;;;;9.20;8.23;;;20.90;99.90;;;;;;5028351;28;20492;-81
2022/06/22 10:33:20;;;;;;;10.67;8.23;;;20.80;99.90;;;;;;5028889;28;20503;-81
2022/06/22 10:36:24;;;;;;;7.73;7.03;;;20.80;99.90;;;;;;5028629;28;20453;-80
2022/06/22 10:39:11;;;;;;;8.80;8.00;;;20.70;99.90;;;;;;5012891;28;20468;-81
2022/06/22 10:45:10;;;;;;;9.40;8.43;;;20.70;99.90;;;;;;5021977;28;20448;-80
2022/06/22 10:48:03;;;;;;;10.33;8.40;;;20.70;99.90;;;;;;5021779;28;21099;-81
2022/06/22 10:50:48;;;;;;;8.47;7.77;;;20.70;99.90;;;;;;5021701;28;20488;-79
2022/06/22 10:53:40;;;;;;;10.40;9.43;;;20.70;99.90;;;;;;5020862;28;20468;-80
2022/06/22 10:56:18;;;;;;;10.17;9.10;;;20.60;99.90;;;;;;5025066;28;20465;-81
2022/06/22 10:59:13;;;;;;;10.83;8.83;;;20.60;99.90;;;;;;5024981;28;20477;-81
2022/06/22 11:01:52;;;;;;;10.80;9.80;;;20.70;99.90;;;;;;5022950;28;20466;-81
2022/06/22 11:04:57;;;;;;;10.23;9.43;;;20.70;99.90;;;;;;5023816;28;20472;-81
2022/06/22 11:07:46;;;;;;;12.13;9.60;;;20.70;99.90;;;;;;5024197;28;20835;-81
2022/06/22 11:10:37;;;;;;;11.37;10.27;;;20.80;99.90;;;;;;5023356;28;20485;-81
2022/06/22 11:13:15;;;;;;;11.50;10.37;;;20.80;99.90;;;;;;5024074;28;20453;-81
2022/06/22 11:16:17;;;;;;;12.13;11.00;;;20.90;99.90;;;;;;5021882;28;20464;-78
2022/06/22 11:19:12;;;;;;;11.03;9.93;;;20.90;99.90;;;;;;5023342;28;20469;-79
2022/06/22 11:22:02;;;;;;;11.83;10.63;;;21.00;99.90;;;;;;5027396;28;20456;-80
2022/06/22 11:24:51;;;;;;;11.73;9.97;;;20.90;99.90;;;;;;5023087;28;20464;-79
2022/06/22 11:33:29;;;;;;;8.87;7.87;;;20.80;99.90;;;;;;5034748;28;20432;-78
2022/06/22 11:36:07;;;;;;;9.60;8.80;;;20.90;99.90;;;;;;5035816;28;20437;-79
2022/06/22 11:39:02;;;;;;;10.30;9.30;;;20.80;99.90;;;;;;5034734;28;20532;-79
2022/06/22 11:41:49;;;;;;;10.27;9.20;;;20.80;99.90;;;;;;5035052;28;20468;-79
2022/06/22 11:45:49;;;;;;;8.73;7.93;;;20.80;99.90;;;;;;5035241;28;20441;-79
2022/06/22 11:48:01;;;;;;;14.23;9.20;;;20.80;99.90;;;;;;5032852;28;20586;-79
2022/06/22 11:50:35;;;;;;;9.93;8.93;;;20.90;99.90;;;;;;5033796;28;20469;-79
2022/06/22 11:53:16;;;;;;;10.80;9.63;;;20.80;99.90;;;;;;5035347;28;20448;-79
2022/06/22 11:55:48;;;;;;;10.73;8.57;;;20.80;99.90;;;;;;5039193;28;20453;-80
2022/06/22 11:58:32;;;;;;;10.80;9.80;;;20.80;99.90;;;;;;5039570;28;20483;-79
2022/06/22 12:01:24;;;;;;;10.13;9.23;;;20.90;99.90;;;;;;5036056;28;20971;-80
2022/06/22 12:04:19;;;;;;;9.53;7.97;;;21.10;99.90;;;;;;5033872;28;20445;-79
2022/06/22 12:07:22;;;;;;;8.10;7.10;;;21.20;99.90;;;;;;5016684;28;20546;-79
2022/06/22 12:10:03;;;;;;;8.37;7.37;;;21.20;99.90;;;;;;5014436;28;20481;-79
2022/06/22 12:13:00;;;;;;;11.10;7.23;;;21.20;99.90;;;;;;5033881;28;20844;-79
2022/06/22 12:15:44;;;;;;;8.20;6.23;;;21.20;99.90;;;;;;5034696;28;20456;-79
2022/06/22 12:18:24;;;;;;;8.37;6.83;;;21.10;99.90;;;;;;5032202;28;20473;-79
2022/06/22 12:21:06;;;;;;;7.37;6.47;;;21.10;99.90;;;;;;5033992;28;20449;-79
2022/06/22 12:23:44;;;;;;;10.37;6.17;;;21.00;99.90;;;;;;5032989;28;20472;-78
2022/06/22 12:26:25;;;;;;;9.40;6.30;;;21.00;99.90;;;;;;5030095;28;20500;-79
2022/06/22 12:29:23;;;;;;;11.70;6.17;;;21.00;99.90;;;;;;5031506;28;20468;-79
2022/06/22 12:31:52;;;;;;;7.87;6.43;;;20.90;99.90;;;;;;5012610;28;20568;-80
2022/06/22 12:34:25;;;;;;;9.03;6.57;;;20.80;99.90;;;;;;5029436;28;20990;-79
2022/06/22 12:36:57;;;;;;;9.70;6.83;;;20.90;99.90;;;;;;5030004;28;20480;-79
2022/06/22 12:39:31;;;;;;;8.63;6.10;;;20.90;99.90;;;;;;5032333;28;20460;-79
2022/06/22 12:42:15;;;;;;;10.27;6.83;;;20.90;99.90;;;;;;5033908;28;20465;-80
2022/06/22 12:45:16;;;;;;;11.80;6.20;;;21.00;99.90;;;;;;5033808;28;20460;-80
2022/06/22 12:48:09;;;;;;;9.50;5.80;;;21.00;99.90;;;;;;5033657;28;20468;-79
2022/06/22 12:51:05;;;;;;;10.77;6.77;;;21.00;99.90;;;;;;5032517;28;20484;-79
2022/06/22 12:53:37;;;;;;;9.20;5.50;;;21.10;99.90;;;;;;5023060;28;20449;-79
2022/06/22 12:56:10;;;;;;;6.30;5.67;;;21.20;99.90;;;;;;5030454;28;20464;-79
2022/06/22 12:58:44;;;;;;;9.03;5.47;;;21.20;99.90;;;;;;5030396;28;20477;-79
2022/06/22 13:01:10;;;;;;;5.87;4.70;;;21.40;99.90;;;;;;5030107;28;20453;-79
2022/06/22 13:03:42;;;;;;;8.40;5.00;;;21.50;99.90;;;;;;5030946;28;20460;-79
2022/06/22 13:06:09;;;;;;;10.67;4.90;;;21.50;99.90;;;;;;5029861;28;20454;-79
2022/06/22 13:08:45;;;;;;;9.40;4.70;;;21.50;99.90;;;;;;5029751;28;20477;-79
2022/06/22 13:11:18;;;;;;;9.70;4.40;;;21.50;99.90;;;;;;5028411;28;20483;-81
2022/06/22 13:13:55;;;;;;;10.60;4.20;;;21.60;99.90;;;;;;5029240;28;20468;-79
2022/06/22 13:16:28;;;;;;;10.40;4.90;;;21.60;99.90;;;;;;5031307;28;20453;-79
2022/06/22 13:19:04;;;;;;;10.87;4.67;;;21.60;99.90;;;;;;5030000;28;20465;-78
2022/06/22 13:21:39;;;;;;;7.20;4.60;;;21.60;99.90;;;;;;5029217;28;20453;-79
2022/06/22 13:24:19;;;;;;;7.40;4.27;;;21.70;99.90;;;;;;5030286;28;20467;-79
2022/06/22 13:26:55;;;;;;;7.40;4.40;;;21.70;99.90;;;;;;5029540;28;20482;-80
2022/06/22 13:29:29;;;;;;;7.80;4.57;;;21.70;99.90;;;;;;5031353;28;20461;-79
2022/06/22 13:31:59;;;;;;;6.97;4.00;;;21.60;99.90;;;;;;5031298;28;20465;-79
2022/06/22 13:34:32;;;;;;;8.93;5.07;;;21.60;99.90;;;;;;5031443;28;20457;-78
2022/06/22 13:37:09;;;;;;;11.73;4.17;;;21.60;99.90;;;;;;5024571;28;20481;-79
2022/06/22 13:39:50;;;;;;;13.00;4.67;;;21.80;99.90;;;;;;5024312;28;20468;-78
2022/06/22 13:42:47;;;;;;;8.70;4.77;;;21.90;99.90;;;;;;5024338;28;20476;-79
2022/06/22 13:45:27;;;;;;;13.30;4.40;;;22.10;99.90;;;;;;5026751;28;20456;-78
2022/06/22 13:48:19;;;;;;;13.17;5.33;;;22.30;99.90;;;;;;5031308;28;20483;-78
2022/06/22 13:51:21;;;;;;;9.93;4.77;;;22.50;99.90;;;;;;5028005;28;20499;-78
2022/06/22 13:54:26;;;;;;;10.03;4.13;;;22.60;99.90;;;;;;5030760;28;20456;-79
2022/06/22 13:57:02;;;;;;;16.27;4.63;;;22.70;99.90;;;;;;5009618;28;20549;-79
2022/06/22 13:59:38;;;;;;;11.30;4.60;;;22.90;99.90;;;;;;5029186;28;20460;-78